»·PEaware :: XOJ557 KRIF-KPSC

XOJ557 :: KRIF-KPSC

FLIGHT INFORMATION

Flight Status: Arrived
Operator:
XOJET
More flights by this operator :: More flights under this callsign
Pilot: Alex K. (14822)
Aircraft: BOMBARDIER BD-100 CHALLENGER 300
(CL30)
More flights by this aircraft type
Origin: KRIF Richfield Mun
United States
Destination: KPSC Tri-Cities
United States
More flights between these airports :: More routes between these airports
Route: +RIF2 DTA BOI PDT
File this flight plan on PilotEdge
Remarks: PBN / D1 NAV / RNVD1E2A1 DAT / V DOF / 180626 REG / N350SB EET / KZSE0108 RMK / NRP SIMBRIEF
Altitude:
(Current/Filed)
38,000ft
Speed:
(Current/Filed)
465kts
Departed: 26-Jun-18 03:08 PM
Arrived: 26-Jun-18 04:35 PM
Distance/Time
Traveled:
547nm/1:27
Distance/Time
To Go:
Arrived

Flight Plot

Page will automatically refresh every two minutes.

Flight plan parsing failed; only flown route is shown


Map Options




Map Legend


Flown Route
Filed Route
Departure Airport
Arrival Airport
Navaid (VOR, NDB)
Fix

Horizontal Profiles

Position Reports

Time Latitude Longitude Heading Altitude Ground
Speed
26-Jun-18 15:02 38.728474 -112.103693 24 5308ft 0kts
26-Jun-18 15:03 38.728474 -112.103693 24 5308ft 0kts
26-Jun-18 15:04 38.728474 -112.103693 24 5308ft 0kts
26-Jun-18 15:05 38.728474 -112.103693 24 5308ft 0kts
26-Jun-18 15:06 38.728474 -112.103693 24 5308ft 0kts
26-Jun-18 15:07 38.728475 -112.103692 24 5308ft 0kts
26-Jun-18 15:08 38.754565 -112.077540 80 7042ft 202kts
26-Jun-18 15:09 38.797807 -112.008926 45 11079ft 304kts
26-Jun-18 15:10 38.863212 -111.924972 44 15781ft 352kts
26-Jun-18 15:11 38.933844 -111.835792 38 20038ft 376kts
26-Jun-18 15:12 39.036845 -111.828431 350 23557ft 397kts
26-Jun-18 15:13 39.125614 -111.901346 323 26442ft 412kts
26-Jun-18 15:14 39.208636 -111.979780 323 29529ft 405kts
26-Jun-18 15:15 39.300767 -112.066609 321 31679ft 416kts
26-Jun-18 15:16 39.394643 -112.155372 322 33512ft 428kts
26-Jun-18 15:17 39.491540 -112.247144 321 35156ft 439kts
26-Jun-18 15:18 39.587418 -112.338243 321 37689ft 425kts
26-Jun-18 15:19 39.684589 -112.430968 321 38020ft 446kts
26-Jun-18 15:20 39.783748 -112.525899 321 38019ft 451kts
26-Jun-18 15:21 39.884020 -112.622255 321 38018ft 444kts
26-Jun-18 15:22 39.980005 -112.714775 320 39114ft 444kts
26-Jun-18 15:23 40.078690 -112.810317 320 40021ft 443kts
26-Jun-18 15:24 40.174155 -112.903047 320 40022ft 440kts
26-Jun-18 15:25 40.272013 -112.998453 320 40021ft 438kts
26-Jun-18 15:26 40.369091 -113.093447 320 40021ft 436kts
26-Jun-18 15:27 40.465439 -113.188073 320 40180ft 432kts
26-Jun-18 15:28 40.561659 -113.282925 320 40182ft 434kts
26-Jun-18 15:29 40.655886 -113.376154 320 40181ft 436kts
26-Jun-18 15:30 40.752195 -113.471815 320 40181ft 438kts
26-Jun-18 15:31 40.845737 -113.565047 320 40178ft 439kts
26-Jun-18 15:32 40.942040 -113.661385 320 40183ft 440kts
26-Jun-18 15:33 41.039305 -113.759047 320 40184ft 442kts
26-Jun-18 15:34 41.135313 -113.855812 320 40001ft 447kts
26-Jun-18 15:35 41.233852 -113.955501 320 40088ft 445kts
26-Jun-18 15:36 41.331800 -114.054981 319 40003ft 447kts
26-Jun-18 15:37 41.429960 -114.155069 319 39993ft 447kts
26-Jun-18 15:38 41.528323 -114.255758 319 39992ft 446kts
26-Jun-18 15:39 41.626463 -114.356610 319 40051ft 444kts
26-Jun-18 15:40 41.723953 -114.457196 319 40072ft 444kts
26-Jun-18 15:41 41.821329 -114.558063 319 40071ft 444kts
26-Jun-18 15:42 41.918266 -114.658870 318 40074ft 443kts
26-Jun-18 15:43 42.014825 -114.759668 318 40077ft 444kts
26-Jun-18 15:44 42.111510 -114.861002 318 40076ft 444kts
26-Jun-18 15:45 42.206844 -114.961320 318 40077ft 443kts
26-Jun-18 15:46 42.303048 -115.062985 318 40075ft 443kts
26-Jun-18 15:47 42.399096 -115.164840 318 40074ft 443kts
26-Jun-18 15:48 42.495440 -115.267429 318 40074ft 442kts
26-Jun-18 15:49 42.591664 -115.370323 318 40073ft 442kts
26-Jun-18 15:50 42.686619 -115.472262 318 40045ft 442kts
26-Jun-18 15:51 42.782595 -115.575713 318 40044ft 442kts
26-Jun-18 15:52 42.876870 -115.677746 317 40051ft 441kts
26-Jun-18 15:53 42.971654 -115.780674 317 40053ft 441kts
26-Jun-18 15:54 43.066856 -115.884591 317 40045ft 439kts
26-Jun-18 15:55 43.161025 -115.987754 317 40049ft 437kts
26-Jun-18 15:56 43.254918 -116.091035 317 40073ft 434kts
26-Jun-18 15:57 43.348097 -116.193949 317 40073ft 430kts
26-Jun-18 15:58 43.438726 -116.294452 317 40072ft 427kts
26-Jun-18 15:59 43.528461 -116.394351 316 40071ft 425kts
26-Jun-18 16:00 43.618158 -116.494600 316 40043ft 423kts
26-Jun-18 16:01 43.705060 -116.592109 316 40042ft 421kts
26-Jun-18 16:02 43.794082 -116.692393 316 40051ft 420kts
26-Jun-18 16:03 43.869307 -116.777404 316 40049ft 420kts
26-Jun-18 16:04 43.958591 -116.878702 315 39580ft 414kts
26-Jun-18 16:05 44.046277 -116.978581 315 38674ft 404kts
26-Jun-18 16:06 44.144556 -117.091025 315 37283ft 393kts
26-Jun-18 16:07 44.226912 -117.185523 313 36088ft 383kts
26-Jun-18 16:08 44.309174 -117.280477 313 34821ft 388kts
26-Jun-18 16:09 44.378055 -117.360361 313 33891ft 390kts
26-Jun-18 16:10 44.460772 -117.457164 314 32733ft 390kts
26-Jun-18 16:11 44.542733 -117.552072 314 31474ft 396kts
26-Jun-18 16:12 44.626483 -117.649860 315 30150ft 400kts
26-Jun-18 16:13 44.711049 -117.749156 314 28892ft 404kts
26-Jun-18 16:14 44.796320 -117.849722 314 27625ft 407kts
26-Jun-18 16:15 44.882229 -117.951229 314 26320ft 405kts
26-Jun-18 16:16 44.967427 -118.052429 314 25038ft 406kts
26-Jun-18 16:17 45.053040 -118.154659 315 23728ft 403kts
26-Jun-18 16:18 45.136926 -118.255187 315 22426ft 398kts
26-Jun-18 16:19 45.218530 -118.353463 315 21153ft 394kts
26-Jun-18 16:20 45.299735 -118.451569 315 19857ft 387kts
26-Jun-18 16:21 45.379891 -118.548766 316 18532ft 376kts
26-Jun-18 16:22 45.458075 -118.643953 316 17207ft 369kts
26-Jun-18 16:23 45.532673 -118.735141 315 15961ft 363kts
26-Jun-18 16:24 45.607048 -118.826281 316 14689ft 358kts
26-Jun-18 16:25 45.681422 -118.917739 316 13397ft 352kts
26-Jun-18 16:26 45.772108 -118.959913 343 11235ft 334kts
26-Jun-18 16:27 45.854447 -118.987300 344 9251ft 284kts
26-Jun-18 16:28 45.929500 -119.011685 347 7125ft 280kts
26-Jun-18 16:29 46.004022 -119.023864 5 4912ft 265kts
26-Jun-18 16:30 46.070400 -119.014316 356 3798ft 222kts
26-Jun-18 16:31 46.134814 -119.025747 346 2839ft 250kts
26-Jun-18 16:32 46.189832 -119.049031 339 1975ft 170kts
26-Jun-18 16:33 46.229193 -119.068890 326 1408ft 141kts
26-Jun-18 16:34 46.257302 -119.105227 313 503ft 128kts
26-Jun-18 16:35 46.268932 -119.123772 135 413ft 12kts
26-Jun-18 16:36 46.265961 -119.119635 136 413ft 22kts
26-Jun-18 16:37 46.261913 -119.113430 66 413ft 0kts
26-Jun-18 16:38 46.263565 -119.107014 70 413ft 24kts
26-Jun-18 16:39 46.263307 -119.105317 248 413ft 0kts
26-Jun-18 16:40 46.263307 -119.105317 248 413ft 0kts

Navigation Log

Ident Type
Flight plan parsing failed, navigation log unavailable